createdAt,value
2023-04-20T00:02:04.048Z,13.30
2023-04-20T00:04:32.232Z,8.40
2023-04-20T00:07:00.265Z,8.77
2023-04-20T00:09:28.550Z,8.40
2023-04-20T00:11:56.623Z,14.23
2023-04-20T00:14:24.854Z,8.37
2023-04-20T00:16:53.142Z,10.57
2023-04-20T00:19:23.350Z,6.23
2023-04-20T00:21:51.526Z,8.97
2023-04-20T00:24:19.769Z,21.33
2023-04-20T00:26:47.971Z,21.70
2023-04-20T00:29:16.524Z,9.70
2023-04-20T00:31:44.967Z,6.10
2023-04-20T00:34:13.155Z,13.17
2023-04-20T00:36:42.762Z,7.27
2023-04-20T00:39:11.150Z,7.30
2023-04-20T00:41:39.478Z,8.77
2023-04-20T00:44:11.354Z,12.10
2023-04-20T00:46:39.570Z,13.20
2023-04-20T00:49:08.078Z,3.77
2023-04-20T00:51:36.893Z,7.43
2023-04-20T00:54:06.901Z,7.03
2023-04-20T00:56:35.382Z,8.07
2023-04-20T00:59:03.724Z,7.63
2023-04-20T01:01:31.977Z,10.17
2023-04-20T01:04:00.641Z,7.60
2023-04-20T01:06:29.393Z,10.17
2023-04-20T01:08:57.581Z,19.13
2023-04-20T01:11:27.098Z,6.00
2023-04-20T01:13:55.268Z,9.27
2023-04-20T01:16:23.531Z,12.07
2023-04-20T01:18:52.655Z,7.60
2023-04-20T01:21:22.560Z,9.57
2023-04-20T01:23:52.071Z,9.20
2023-04-20T01:26:21.658Z,6.40
2023-04-20T01:28:49.847Z,6.57
2023-04-20T01:31:18.450Z,10.10
2023-04-20T01:33:46.663Z,13.20
2023-04-20T01:36:15.166Z,8.20
2023-04-20T01:38:43.369Z,8.63
2023-04-20T01:41:13.054Z,10.63
2023-04-20T01:43:41.928Z,14.03
2023-04-20T01:46:10.336Z,6.47
2023-04-20T01:48:38.566Z,6.87
2023-04-20T01:51:08.786Z,9.90
2023-04-20T01:53:36.933Z,7.10
2023-04-20T01:56:05.585Z,10.63
2023-04-20T01:58:35.699Z,5.57
2023-04-20T02:01:04.007Z,8.00
2023-04-20T02:03:32.346Z,9.57
2023-04-20T02:06:00.780Z,8.80
2023-04-20T02:08:28.879Z,5.83
2023-04-20T02:10:57.008Z,10.40
2023-04-20T02:13:25.647Z,13.00
2023-04-20T02:15:55.593Z,6.97
2023-04-20T02:18:24.539Z,10.80
2023-04-20T02:20:54.204Z,14.20
2023-04-20T02:23:22.380Z,7.30
2023-04-20T02:25:50.606Z,7.00
2023-04-20T02:28:18.979Z,8.13
2023-04-20T02:30:47.179Z,8.30
2023-04-20T02:33:16.730Z,4.80
2023-04-20T02:35:44.889Z,7.63
2023-04-20T02:38:13.077Z,9.67
2023-04-20T02:40:41.300Z,8.90
2023-04-20T02:43:09.466Z,7.20
2023-04-20T02:45:37.677Z,8.27
2023-04-20T02:48:06.706Z,10.73
2023-04-20T02:50:38.058Z,6.20
2023-04-20T02:53:06.735Z,12.33
2023-04-20T02:55:34.968Z,8.57
2023-04-20T02:58:03.161Z,4.73
2023-04-20T03:00:31.560Z,8.27
2023-04-20T03:03:00.087Z,11.50
2023-04-20T03:05:28.355Z,6.50
2023-04-20T03:07:57.909Z,7.20
2023-04-20T03:10:26.198Z,10.20
2023-04-20T03:12:54.357Z,9.33
2023-04-20T03:15:23.316Z,7.80
2023-04-20T03:17:51.598Z,6.70
2023-04-20T03:20:19.905Z,7.40
2023-04-20T03:22:48.091Z,6.13
2023-04-20T03:25:17.644Z,10.53
2023-04-20T03:27:47.421Z,6.43
2023-04-20T03:30:16.058Z,6.97
2023-04-20T03:32:44.912Z,7.33
2023-04-20T03:35:13.104Z,5.53
2023-04-20T03:37:41.298Z,14.00
2023-04-20T03:40:10.552Z,7.23
2023-04-20T03:42:40.134Z,6.43
2023-04-20T03:45:09.216Z,10.00
2023-04-20T03:47:37.400Z,5.60
2023-04-20T03:50:06.401Z,5.47
2023-04-20T03:52:34.779Z,5.77
2023-04-20T03:55:03.135Z,8.87
2023-04-20T03:57:31.334Z,6.10
2023-04-20T04:00:01.018Z,11.30
2023-04-20T04:02:29.389Z,10.73
2023-04-20T04:04:57.818Z,7.77
2023-04-20T04:07:26.189Z,11.43
2023-04-20T04:09:54.344Z,13.10
2023-04-20T04:12:22.539Z,9.20
2023-04-20T04:14:50.766Z,11.23
2023-04-20T04:17:20.375Z,10.10
2023-04-20T04:19:48.564Z,7.00
2023-04-20T04:22:16.915Z,7.00
2023-04-20T04:24:45.147Z,6.73
2023-04-20T04:27:15.622Z,7.30
2023-04-20T04:29:44.801Z,11.27
2023-04-20T04:32:14.090Z,10.13
2023-04-20T04:34:44.907Z,7.73
2023-04-20T04:37:14.504Z,11.87
2023-04-20T04:39:42.675Z,8.83
2023-04-20T04:42:10.951Z,6.73
2023-04-20T04:44:40.372Z,11.97
2023-04-20T04:47:09.620Z,4.83
2023-04-20T04:49:37.820Z,9.43
2023-04-20T04:52:07.451Z,9.57
2023-04-20T04:54:35.702Z,16.40
2023-04-20T04:57:04.201Z,9.93
2023-04-20T04:59:32.372Z,6.70
2023-04-20T05:02:00.914Z,10.10
2023-04-20T05:04:29.357Z,7.17
2023-04-20T05:06:57.704Z,13.30
2023-04-20T05:09:33.260Z,12.60
2023-04-20T05:12:03.219Z,8.93
2023-04-20T05:14:32.169Z,11.40
2023-04-20T05:17:01.086Z,15.13
2023-04-20T05:19:29.235Z,11.20
2023-04-20T05:21:57.429Z,9.00
2023-04-20T05:24:27.081Z,15.15
2023-04-20T05:26:55.294Z,10.20
2023-04-20T05:29:23.525Z,9.60
2023-04-20T05:31:51.852Z,9.73
2023-04-20T05:34:20.284Z,11.00
2023-04-20T05:36:48.683Z,8.60
2023-04-20T05:39:17.355Z,13.03
2023-04-20T05:41:48.115Z,8.87
2023-04-20T05:44:16.421Z,12.97
2023-04-20T05:46:44.602Z,15.30
2023-04-20T05:49:12.835Z,13.97
2023-04-20T05:51:41.020Z,12.27
2023-04-20T05:54:09.838Z,14.03
2023-04-20T05:56:38.080Z,12.83
2023-04-20T05:59:07.961Z,11.57
2023-04-20T06:01:36.506Z,17.70
2023-04-20T06:04:04.951Z,9.73
2023-04-20T06:06:33.962Z,12.87
2023-04-20T06:09:02.157Z,8.63
2023-04-20T06:11:30.333Z,11.57
2023-04-20T06:13:58.820Z,12.97
2023-04-20T06:16:28.533Z,12.23
2023-04-20T06:18:57.005Z,13.80
2023-04-20T06:21:26.917Z,14.43
2023-04-20T06:23:55.131Z,8.27
2023-04-20T06:26:23.453Z,17.40
2023-04-20T06:28:53.008Z,9.30
2023-04-20T06:31:22.003Z,10.70
2023-04-20T06:33:51.720Z,19.13
2023-04-20T06:36:19.959Z,30.03
2023-04-20T06:38:48.170Z,17.70
2023-04-20T06:41:16.619Z,15.93
2023-04-20T06:43:45.804Z,18.40
2023-04-20T06:46:14.031Z,11.63
2023-04-20T06:48:42.220Z,13.70
2023-04-20T06:51:14.031Z,17.40
2023-04-20T06:53:42.222Z,12.90
2023-04-20T06:56:11.489Z,10.43
2023-04-20T06:58:39.669Z,8.40
2023-04-20T07:01:08.361Z,19.43
2023-04-20T07:03:36.844Z,9.90
2023-04-20T07:06:05.430Z,16.00
2023-04-20T07:08:35.092Z,16.23
2023-04-20T07:11:03.322Z,9.87
2023-04-20T07:13:33.876Z,12.60
2023-04-20T07:16:02.732Z,16.17
2023-04-20T07:18:32.357Z,19.63
2023-04-20T07:21:02.145Z,11.30
2023-04-20T07:23:30.302Z,9.30
2023-04-20T07:25:59.887Z,15.43
2023-04-20T07:28:28.033Z,13.10
2023-04-20T07:30:56.274Z,12.33
2023-04-20T07:33:24.564Z,10.37
2023-04-20T07:35:52.820Z,11.70
2023-04-20T07:38:21.087Z,12.70
2023-04-20T07:40:49.375Z,10.03
2023-04-20T07:43:18.988Z,16.97
2023-04-20T07:45:48.547Z,13.17
2023-04-20T07:48:16.822Z,10.77
2023-04-20T07:50:45.535Z,10.40
2023-04-20T07:53:14.241Z,12.93
2023-04-20T07:55:42.505Z,14.60
2023-04-20T07:58:10.985Z,17.13
2023-04-20T08:00:40.525Z,18.07
2023-04-20T08:03:08.928Z,14.37
2023-04-20T08:05:40.850Z,18.60
2023-04-20T08:08:09.429Z,12.90
2023-04-20T08:10:37.717Z,19.40
2023-04-20T08:13:06.152Z,9.83
2023-04-20T08:15:34.435Z,11.73
2023-04-20T08:18:04.246Z,11.10
2023-04-20T08:23:01.657Z,14.37
2023-04-20T08:25:29.895Z,11.83
2023-04-20T08:27:58.122Z,15.67
2023-04-20T08:30:27.859Z,17.60
2023-04-20T08:32:56.246Z,14.60
2023-04-20T08:35:26.069Z,13.97
2023-04-20T08:37:54.320Z,12.03
2023-04-20T08:40:24.560Z,16.90
2023-04-20T08:42:52.849Z,11.37
2023-04-20T08:45:21.245Z,13.73
2023-04-20T08:47:49.976Z,12.50
2023-04-20T08:50:18.243Z,13.33
2023-04-20T08:52:48.132Z,16.30
2023-04-20T08:55:17.656Z,12.83
2023-04-20T08:57:46.432Z,16.70
2023-04-20T09:00:16.033Z,12.60
2023-04-20T09:02:51.816Z,16.33
2023-04-20T09:05:28.249Z,17.13
2023-04-20T09:07:59.932Z,18.10
2023-04-20T09:10:39.486Z,15.40
2023-04-20T09:13:07.773Z,11.50
2023-04-20T09:15:36.225Z,15.33
2023-04-20T09:18:15.190Z,15.50
2023-04-20T09:39:16.560Z,14.97
2023-04-20T09:41:45.302Z,12.67
2023-04-20T09:44:14.342Z,12.13
2023-04-20T09:46:43.390Z,14.53
2023-04-20T09:49:12.710Z,11.30
2023-04-20T09:51:45.119Z,11.63
2023-04-20T09:54:16.540Z,11.93
2023-04-20T09:56:44.822Z,13.13
2023-04-20T09:59:13.421Z,13.10
2023-04-20T10:01:41.703Z,11.23
2023-04-20T10:04:11.339Z,10.27
2023-04-20T10:06:39.771Z,19.73
2023-04-20T10:09:09.600Z,9.73
2023-04-20T10:11:52.414Z,13.83
2023-04-20T10:14:24.128Z,16.37
2023-04-20T10:17:01.800Z,11.97
2023-04-20T10:19:39.398Z,10.60
2023-04-20T10:22:08.545Z,8.50
2023-04-20T10:24:38.220Z,14.50
2023-04-20T10:27:17.832Z,11.50
2023-04-20T10:29:45.977Z,11.83
2023-04-20T10:32:24.067Z,11.50
2023-04-20T10:40:27.617Z,24.13
2023-04-20T10:46:38.441Z,15.53
2023-04-20T10:49:30.053Z,18.77
2023-04-20T10:51:58.286Z,8.83
2023-04-20T10:54:26.910Z,18.43
2023-04-20T10:56:55.040Z,9.07
2023-04-20T10:59:24.900Z,12.07
2023-04-20T11:01:55.609Z,7.70
2023-04-20T11:04:32.235Z,11.43
2023-04-20T11:07:07.096Z,13.87
2023-04-20T11:09:35.600Z,8.27
2023-04-20T11:12:04.659Z,15.40
2023-04-20T11:14:33.655Z,8.90
2023-04-20T11:17:03.280Z,9.40
2023-04-20T11:19:33.274Z,8.77
2023-04-20T11:22:03.819Z,12.73
2023-04-20T11:24:34.156Z,11.40
2023-04-20T11:27:04.506Z,12.10
2023-04-20T11:29:34.222Z,10.60
2023-04-20T11:32:06.535Z,11.70
2023-04-20T11:34:35.719Z,11.03
2023-04-20T11:37:07.440Z,10.53
2023-04-20T11:39:35.746Z,9.43
2023-04-20T11:42:04.031Z,9.53
2023-04-20T11:44:32.943Z,15.03
2023-04-20T11:47:01.795Z,11.77
2023-04-20T11:49:31.424Z,13.73
2023-04-20T11:51:59.440Z,10.70
2023-04-20T11:54:28.395Z,15.00
2023-04-20T11:56:56.587Z,13.90
2023-04-20T11:59:25.293Z,16.80
2023-04-20T12:01:53.454Z,10.70
2023-04-20T12:04:21.889Z,13.87
2023-04-20T12:06:51.576Z,13.73
2023-04-20T12:09:19.896Z,9.73
2023-04-20T12:11:48.188Z,16.17
2023-04-20T12:14:16.207Z,10.70
2023-04-20T12:16:44.219Z,13.67
2023-04-20T12:19:12.217Z,14.63
2023-04-20T12:21:40.227Z,17.87
2023-04-20T12:24:09.670Z,15.40
2023-04-20T12:26:38.965Z,8.27
2023-04-20T12:29:08.189Z,13.73
2023-04-20T12:31:36.670Z,14.17
2023-04-20T12:34:04.928Z,11.63
2023-04-20T12:36:35.081Z,14.97
2023-04-20T12:39:04.564Z,10.97
2023-04-20T12:41:34.509Z,13.67
2023-04-20T12:44:05.136Z,10.80
2023-04-20T12:46:34.707Z,10.03
2023-04-20T12:49:03.377Z,9.00
2023-04-20T12:51:31.832Z,13.13
2023-04-20T12:54:00.120Z,7.40
2023-04-20T12:56:28.171Z,16.63
2023-04-20T12:58:57.561Z,12.10
2023-04-20T13:01:25.778Z,8.00
2023-04-20T13:03:54.076Z,10.70
2023-04-20T13:06:22.439Z,8.60
2023-04-20T13:08:50.927Z,6.97
2023-04-20T13:11:18.951Z,5.77
2023-04-20T13:13:47.127Z,9.43
2023-04-20T13:16:16.620Z,8.40
2023-04-20T13:18:44.891Z,15.23
2023-04-20T13:21:12.899Z,13.67
2023-04-20T13:23:40.942Z,9.77
2023-04-20T13:26:09.543Z,26.60
2023-04-20T13:28:37.966Z,34.73
2023-04-20T13:31:06.230Z,27.33
2023-04-20T13:33:35.795Z,17.33
2023-04-20T13:36:04.019Z,13.17
2023-04-20T13:38:32.090Z,12.13
2023-04-20T13:41:00.190Z,25.73
2023-04-20T13:43:28.251Z,18.40
2023-04-20T13:45:56.395Z,14.70
2023-04-20T13:48:24.481Z,10.83
2023-04-20T13:50:54.114Z,17.20
2023-04-20T13:53:22.562Z,16.17
2023-04-20T13:55:50.863Z,7.90
2023-04-20T13:58:18.921Z,5.63
2023-04-20T14:00:47.606Z,14.13
2023-04-20T14:03:18.718Z,13.27
2023-04-20T14:05:46.975Z,7.00
2023-04-20T14:08:16.436Z,14.67
2023-04-20T14:10:44.488Z,19.43
2023-04-20T14:13:12.606Z,16.10
2023-04-20T14:15:41.539Z,15.17
2023-04-20T14:18:09.752Z,12.80
2023-04-20T14:20:38.000Z,12.40
2023-04-20T14:23:07.440Z,13.07
2023-04-20T14:25:39.069Z,9.07
2023-04-20T14:28:07.083Z,13.77
2023-04-20T14:30:35.167Z,11.50
2023-04-20T14:33:04.226Z,14.60
2023-04-20T14:35:32.491Z,8.03
2023-04-20T14:38:00.589Z,6.83
2023-04-20T14:40:28.647Z,13.43
2023-04-20T14:42:58.112Z,14.27
2023-04-20T14:45:26.285Z,16.23
2023-04-20T14:47:55.224Z,10.23
2023-04-20T14:50:23.976Z,11.30
2023-04-20T14:52:52.916Z,10.13
2023-04-20T14:55:24.695Z,11.00
2023-04-20T14:57:55.270Z,13.53
2023-04-20T15:00:25.320Z,10.53
2023-04-20T15:02:56.192Z,10.80
2023-04-20T15:05:25.285Z,8.00
2023-04-20T15:07:53.661Z,9.47
2023-04-20T15:10:21.788Z,17.23
2023-04-20T15:12:50.357Z,9.77
2023-04-20T15:15:18.489Z,9.73
2023-04-20T15:17:48.009Z,14.13
2023-04-20T15:20:16.403Z,9.27
2023-04-20T15:22:44.466Z,9.03
2023-04-20T15:25:12.872Z,10.13
2023-04-20T15:27:41.106Z,13.63
2023-04-20T15:30:10.249Z,13.77
2023-04-20T15:32:38.384Z,16.80
2023-04-20T15:35:08.317Z,14.77
2023-04-20T15:37:36.370Z,11.00
2023-04-20T15:40:04.794Z,11.40
2023-04-20T15:42:33.057Z,8.40
2023-04-20T15:45:01.106Z,9.57
2023-04-20T15:47:29.159Z,14.03
2023-04-20T15:50:01.568Z,14.77
2023-04-20T15:52:32.560Z,15.07
2023-04-20T15:55:00.628Z,16.83
2023-04-20T15:57:30.640Z,16.33
2023-04-20T15:59:58.829Z,14.50
2023-04-20T16:02:27.063Z,9.30
2023-04-20T16:04:55.357Z,10.93
2023-04-20T16:07:23.509Z,10.10
2023-04-20T16:09:52.947Z,11.70
2023-04-20T16:12:21.048Z,21.07
2023-04-20T16:14:53.227Z,10.60
2023-04-20T16:17:21.995Z,13.43
2023-04-20T16:19:50.327Z,13.07
2023-04-20T16:22:18.388Z,15.73
2023-04-20T16:24:47.539Z,15.90
2023-04-20T16:27:17.138Z,17.20
2023-04-20T16:29:45.601Z,13.03
2023-04-20T16:32:14.265Z,14.17
2023-04-20T16:34:42.328Z,11.83
2023-04-20T16:37:10.723Z,17.77
2023-04-20T16:39:38.802Z,16.73
2023-04-20T16:42:06.973Z,21.90
2023-04-20T16:44:36.440Z,11.03
2023-04-20T16:47:04.646Z,20.27
2023-04-20T16:49:32.719Z,12.47
2023-04-20T16:52:00.988Z,23.07
2023-04-20T16:54:29.046Z,22.20
2023-04-20T16:56:57.494Z,18.67
2023-04-20T16:59:25.594Z,15.43
2023-04-20T17:01:55.162Z,20.83
2023-04-20T17:04:23.544Z,11.73
2023-04-20T17:06:51.870Z,21.60
2023-04-20T17:09:20.169Z,22.30
2023-04-20T17:11:48.352Z,18.17
2023-04-20T17:14:16.955Z,22.37
2023-04-20T17:16:45.254Z,20.67
2023-04-20T17:19:14.672Z,19.10
2023-04-20T17:21:44.042Z,27.23
2023-04-20T17:24:12.201Z,19.47
2023-04-20T17:26:40.491Z,23.13
2023-04-20T17:29:08.615Z,26.30
2023-04-20T17:31:36.775Z,26.10
2023-04-20T17:34:04.893Z,19.57
2023-04-20T17:36:34.842Z,19.30
2023-04-20T17:39:03.355Z,14.33
2023-04-20T17:41:31.509Z,21.23
2023-04-20T17:43:59.630Z,18.53
2023-04-20T17:46:27.931Z,11.80
2023-04-20T17:48:56.146Z,14.43
2023-04-20T17:51:24.169Z,17.17
2023-04-20T17:53:53.557Z,36.13
2023-04-20T17:56:21.609Z,20.93
2023-04-20T17:58:49.865Z,24.10
2023-04-20T18:01:17.970Z,21.07
2023-04-20T18:03:48.190Z,15.07
2023-04-20T18:06:16.588Z,14.00
2023-04-20T18:08:44.810Z,14.67
2023-04-20T18:11:14.748Z,21.00
2023-04-20T18:13:42.890Z,12.10
2023-04-20T18:16:11.003Z,18.97
2023-04-20T18:18:39.187Z,17.23
2023-04-20T18:21:07.286Z,15.60
2023-04-20T18:23:35.302Z,14.23
2023-04-20T18:26:03.386Z,16.30
2023-04-20T18:28:32.826Z,15.80
2023-04-20T18:31:01.118Z,17.57
2023-04-20T18:33:29.218Z,13.13
2023-04-20T18:35:57.265Z,19.20
2023-04-20T18:38:25.400Z,18.30
2023-04-20T18:40:53.810Z,20.33
2023-04-20T18:43:21.931Z,12.83
2023-04-20T18:45:51.374Z,16.50
2023-04-20T18:48:19.573Z,19.70
2023-04-20T18:50:48.229Z,18.87
2023-04-20T18:53:16.739Z,15.43
2023-04-20T18:55:44.841Z,11.93
2023-04-20T18:58:13.029Z,17.07
2023-04-20T19:00:41.079Z,20.53
2023-04-20T19:03:10.904Z,16.83
2023-04-20T19:05:39.134Z,14.73
2023-04-20T19:08:07.193Z,13.93
2023-04-20T19:10:35.255Z,19.80
2023-04-20T19:13:03.652Z,19.50
2023-04-20T19:15:31.687Z,17.13
2023-04-20T19:17:59.739Z,17.33
2023-04-20T19:20:29.169Z,13.37
2023-04-20T19:22:57.235Z,15.40
2023-04-20T19:25:25.238Z,10.07
2023-04-20T19:27:53.385Z,16.47
2023-04-20T19:30:21.475Z,19.60
2023-04-20T19:32:49.589Z,14.80
2023-04-20T19:35:17.679Z,15.93
2023-04-20T19:37:47.314Z,12.50
2023-04-20T19:40:16.240Z,14.13
2023-04-20T19:42:44.361Z,14.17
2023-04-20T19:45:12.708Z,21.30
2023-04-20T19:47:40.891Z,14.37
2023-04-20T19:50:09.437Z,15.13
2023-04-20T19:52:37.661Z,19.10
2023-04-20T19:55:08.251Z,29.87
2023-04-20T19:57:36.329Z,26.17
2023-04-20T20:00:05.965Z,21.90
2023-04-20T20:02:34.180Z,23.10
2023-04-20T20:05:02.279Z,28.23
2023-04-20T20:07:30.426Z,25.67
2023-04-20T20:09:58.477Z,29.23
2023-04-20T20:12:28.000Z,17.37
2023-04-20T20:14:56.078Z,19.27
2023-04-20T20:17:24.155Z,16.37
2023-04-20T20:19:53.777Z,19.57
2023-04-20T20:22:23.231Z,21.73
2023-04-20T20:24:54.177Z,19.83
2023-04-20T20:27:22.303Z,22.13
2023-04-20T20:29:51.719Z,24.33
2023-04-20T20:32:20.521Z,19.13
2023-04-20T20:34:48.553Z,17.57
2023-04-20T20:37:16.594Z,21.73
2023-04-20T20:39:44.584Z,24.03
2023-04-20T20:42:12.629Z,20.60
2023-04-20T20:44:40.725Z,17.77
2023-04-20T20:47:10.258Z,21.13
2023-04-20T20:49:38.329Z,17.57
2023-04-20T20:52:07.260Z,16.27
2023-04-20T20:54:35.283Z,17.90
2023-04-20T20:57:03.298Z,18.20
2023-04-20T20:59:31.382Z,24.20
2023-04-20T21:01:59.456Z,17.43
2023-04-20T21:04:29.929Z,17.37
2023-04-20T21:06:57.966Z,18.20
2023-04-20T21:09:25.990Z,24.30
2023-04-20T21:11:54.122Z,14.40
2023-04-20T21:14:22.158Z,16.30
2023-04-20T21:16:50.485Z,21.90
2023-04-20T21:19:18.969Z,15.03
2023-04-20T21:21:48.536Z,19.73
2023-04-20T21:24:16.727Z,17.63
2023-04-20T21:26:44.718Z,18.50
2023-04-20T21:29:12.758Z,11.97
2023-04-20T21:31:41.016Z,20.50
2023-04-20T21:34:09.072Z,16.53
2023-04-20T21:36:37.095Z,20.50
2023-04-20T21:39:06.693Z,18.03
2023-04-20T21:41:34.752Z,20.97
2023-04-20T21:44:03.315Z,19.97
2023-04-20T21:46:31.415Z,20.93
2023-04-20T21:48:59.500Z,19.60
2023-04-20T21:51:27.726Z,17.63
2023-04-20T21:53:55.822Z,19.47
2023-04-20T21:56:25.413Z,21.23
2023-04-20T21:58:53.395Z,20.17
2023-04-20T22:01:21.510Z,18.37
2023-04-20T22:03:49.914Z,22.83
2023-04-20T22:06:18.047Z,29.70
2023-04-20T22:08:46.320Z,21.03
2023-04-20T22:11:14.571Z,19.03
2023-04-20T22:13:44.617Z,15.77
2023-04-20T22:16:12.787Z,16.33
2023-04-20T22:18:41.370Z,23.60
2023-04-20T22:21:09.360Z,15.20
2023-04-20T22:23:37.449Z,22.27
2023-04-20T22:26:05.957Z,24.53
2023-04-20T22:28:33.990Z,21.57
2023-04-20T22:31:03.616Z,18.00
2023-04-20T22:33:31.693Z,19.43
2023-04-20T22:35:59.722Z,18.03
2023-04-20T22:38:27.894Z,15.40
2023-04-20T22:40:56.039Z,15.30
2023-04-20T22:43:24.210Z,20.23
2023-04-20T22:45:53.847Z,23.33
2023-04-20T22:48:23.280Z,15.90
2023-04-20T22:50:51.339Z,15.23
2023-04-20T22:53:19.360Z,20.67
2023-04-20T22:55:47.403Z,16.77
2023-04-20T22:58:15.468Z,16.27
2023-04-20T23:00:43.874Z,22.57
2023-04-20T23:03:12.086Z,17.67
2023-04-20T23:05:44.473Z,19.17
2023-04-20T23:08:13.633Z,21.90
2023-04-20T23:10:41.880Z,22.23
2023-04-20T23:13:16.839Z,18.47
2023-04-20T23:15:44.908Z,19.67
2023-04-20T23:18:13.211Z,17.33
2023-04-20T23:20:42.604Z,18.10
2023-04-20T23:23:10.884Z,13.77
2023-04-20T23:25:39.010Z,20.47
2023-04-20T23:28:07.091Z,16.20
2023-04-20T23:30:35.242Z,24.43
2023-04-20T23:33:03.507Z,18.60
2023-04-20T23:35:31.592Z,17.87
2023-04-20T23:38:01.020Z,16.03
2023-04-20T23:40:29.060Z,19.93
2023-04-20T23:42:57.120Z,16.77
2023-04-20T23:45:25.457Z,15.73
2023-04-20T23:47:53.768Z,24.33
2023-04-20T23:50:22.086Z,12.37
2023-04-20T23:52:50.107Z,18.00
2023-04-20T23:55:19.814Z,16.80
2023-04-20T23:57:48.130Z,12.23
